Aérodrome :
LOGIN :

S'inscrire | Disclaimer

   EN    FR    IT 

 










Légende :    VFR   VFR Marginal   IFR   IFR Intensif   IFR Très Intensif
Visi : 
Plafond : 
>= 8 km
>= 3000ft
5 à 8 km
1000 à 3000 ft
1500m à 5 km
500 à 1000 ft
800 à 1500m
200 à 500 ft
< 800m
< 200 ft
Symboles :   Orages  Brouillard  Fortes neiges  Fortes précipitations  Vent > 20 kt
SIGMETs :   Divers  Orages  Givrage  Turbulence  Onde Orograph.  Cendres Volcan.







- Altitude de l'aérodrome : 465 ft
- Code IATA : LEJ


EDDP - Leipzig Halle

METARs EXPIRÉS :
  • 241420Z 25017KT CAVOK 24/12 Q1013 TEMPO 25020G30KT
  • 241350Z 27018KT CAVOK 24/10 Q1013 TEMPO 25020G30KT
  • 241320Z 26018KT CAVOK 24/10 Q1013 TEMPO 25020G30KT
  • 241250Z 26019KT CAVOK 25/12 Q1013 TEMPO 25020G30KT
  • 241220Z 26019KT CAVOK 25/12 Q1013 TEMPO 25020G30KT
  • 241150Z 26020KT CAVOK 25/12 Q1013 TEMPO 25020G30KT

TAF TAF EDDP
Valide du 24 à 12h jusqu'au 25 à 12h UTC


241100Z 2412/2512 25015G25KT CAVOK
TEMPO 2412/2415 26020G30KT
BECMG 2416/2418 28010KT
BECMG 2419/2422 22006KT
BECMG 2506/2508 25015G25KT
Pas de NOTAMs connus pour ce terrain.



MET'MAP, la Météo Aéronautique d'un coup d'oeil ! - Copyright ORBIFLY Décembre 2007 - Disclaimer

ORBIFLY MET'MAP TEAM :

Programmation & Développement : Alexandra Zaïnal
Conception & Développement : Baudouin d'Aumeries
Co-Programmation & Développement : Marc-Olivier Méhu
Soutien technique & logistique : Manuel Goepfert

Contact : metmap@orbifly.com




SOURCES & CREDITS :

   NOAA